METAR Data
IDs: Format: Raw Decoded Include TAF

Data at: 0456 UTC 26 Sep 2018

KLRU 260435Z AUTO 36014KT 10SM CLR 22/11 A3011 RMK AO2 T02230105
KLRU 260415Z AUTO 34014G21KT 10SM CLR 22/11 A3010 RMK AO2 T02240106
KLRU 260355Z AUTO 35015G20KT 10SM CLR 23/10 A3010 RMK AO2 T02300102
KLRU 260335Z AUTO 34007KT 10SM SCT090 24/08 A3010 RMK AO2 LTG DSNT NE T02440084
KLRU 260315Z AUTO 35015G20KT 10SM VCTS BKN090 24/10 A3009 RMK AO2 T02380096
KLRU 260255Z AUTO 34012G16KT 10SM SCT100 26/08 A3008 RMK AO2 LTG DSNT NW T02550083
KLRU 260235Z AUTO 27007KT 10SM BKN100 26/09 A3007 RMK AO2 T02570092
KLRU 260215Z AUTO 26006KT 10SM BKN100 26/09 A3006 RMK AO2 LTG DSNT NE T02600093
KLRU 260155Z AUTO 25005KT 10SM SCT100 26/09 A3005 RMK AO2 T02580091
KLRU 260135Z AUTO 25004KT 10SM CLR 27/09 A3004 RMK AO2 T02670088
KLRU 260115Z AUTO 24005KT 10SM CLR 27/08 A3003 RMK AO2 T02730083
KLRU 260055Z AUTO 25006KT 10SM CLR 29/08 A3003 RMK AO2 T02850082
KLRU 260035Z AUTO 24006KT 10SM CLR 30/07 A3002 RMK AO2 T02950074
KLRU 260015Z AUTO 22007KT 10SM VCTS CLR 31/07 A3002 RMK AO2 LTG DSNT N T03050069
KLRU 252355Z AUTO 24009KT 10SM CLR 31/06 A3001 RMK AO2 T03140060 10329 20295
KLRU 252335Z AUTO 26003KT 10SM SCT095 32/06 A3001 RMK AO2 T03180063
KLRU 252315Z AUTO 23005KT 10SM SCT095 32/06 A3001 RMK AO2 T03190064
KLRU 252255Z AUTO 17003KT 10SM CLR 32/07 A3001 RMK AO2 T03180066
KLRU 252235Z AUTO 16005KT 10SM CLR 31/07 A3001 RMK AO2 T03090072
KLRU 252215Z AUTO 17005G08KT 10SM CLR 33/07 A3002 RMK AO2 T03250066
KLRU 252155Z AUTO 20009KT 170V230 10SM CLR 32/07 A3002 RMK AO2 T03180070
KLRU 252135Z AUTO 19008KT 10SM CLR 32/07 A3002 RMK AO2 T03190069
KLRU 252115Z AUTO 24011KT 10SM SCT095 33/07 A3003 RMK AO2 LTG DSNT S T03270073
KLRU 252055Z AUTO 18007KT 10SM SCT095 32/08 A3003 RMK AO2 T03210076
KLRU 252035Z AUTO 00000KT 10SM SCT095 SCT120 32/07 A3003 RMK AO2 T03210073
KLRU 252015Z AUTO 20006KT 10SM BKN120 31/07 A3004 RMK AO2 T03120073
KLRU 251955Z AUTO 21006KT 10SM SCT120 31/07 A3006 RMK AO2 T03100070
KLRU 251935Z AUTO 28005KT 10SM SCT120 31/07 A3007 RMK AO2 T03110068
KLRU 251915Z AUTO 29003KT 10SM CLR 31/07 A3007 RMK AO2 T03080071
KLRU 251855Z AUTO 01005KT 10SM SCT110 31/08 A3008 RMK AO2 T03100077
KLRU 251835Z AUTO 00000KT 10SM SCT110 30/08 A3008 RMK AO2 T03040076
KLRU 251815Z AUTO 00000KT 10SM SCT120 30/07 A3009 RMK AO2 T03020073
KLRU 251755Z AUTO 14003KT 10SM SCT120 30/08 A3010 RMK AO2 T02970079 10301 20181
KLRU 251735Z AUTO 00000KT 10SM BKN120 29/08 A3010 RMK AO2 T02910083
KLRU 251715Z AUTO 04005KT 10SM SCT120 29/08 A3010 RMK AO2 T02850084
KLRU 251655Z AUTO 12003KT 10SM CLR 28/10 A3011 RMK AO2 T02810098
KLRU 251635Z AUTO 09004KT 10SM SCT120 27/10 A3011 RMK AO2 T02740104
KLRU 251615Z AUTO 35003KT 10SM SCT120 27/08 A3011 RMK AO2 T02690081
KLRU 251555Z AUTO 28003KT 10SM SCT120 26/09 A3010 RMK AO2 T02570085
KLRU 251535Z AUTO 29004KT 10SM BKN120 25/09 A3010 RMK AO2 T02460090
KLRU 251515Z AUTO 35003KT 10SM BKN120 24/09 A3009 RMK AO2 T02400091
KLRU 251455Z AUTO 29003KT 10SM SCT120 23/09 A3009 RMK AO2 T02330091
KLRU 251435Z AUTO 00000KT 10SM CLR 22/09 A3008 RMK AO2 T02240091
KLRU 251415Z AUTO 30003KT 10SM SCT120 21/10 A3008 RMK AO2 T02110098
KLRU 251355Z AUTO 29004KT 10SM SCT120 20/10 A3008 RMK AO2 T02000104
KLRU 251335Z AUTO 30005KT 10SM SCT120 20/10 A3007 RMK AO2 T01950102
KLRU 251315Z AUTO 29006KT 10SM BKN120 19/11 A3007 RMK AO2 T01870110
KLRU 251255Z AUTO 28007KT 10SM CLR 18/11 A3007 RMK AO2 T01830112
KLRU 251235Z AUTO 26007KT 10SM CLR 18/11 A3006 RMK AO2 T01820111
KLRU 251215Z AUTO 24008KT 10SM CLR 19/11 A3005 RMK AO2 T01850109
KLRU 251155Z AUTO 24005KT 10SM CLR 18/11 A3005 RMK AO2 T01820110 10245 20182
KLRU 251135Z AUTO 24006KT 10SM CLR 19/11 A3005 RMK AO2 T01910107
KLRU 251115Z AUTO 24006KT 10SM CLR 20/11 A3004 RMK AO2 T01970105
KLRU 251055Z AUTO 24007KT 10SM CLR 20/10 A3004 RMK AO2 T02030102
KLRU 251035Z AUTO 23009KT 10SM CLR 21/10 A3003 RMK AO2 T02100099
KLRU 251015Z AUTO 25009KT 10SM SCT120 21/10 A3003 RMK AO2 T02110098
KLRU 250955Z AUTO 22004KT 10SM SCT120 22/10 A3003 RMK AO2 T02190095
KLRU 250935Z AUTO 19003KT 10SM SCT120 23/09 A3003 RMK AO2 T02250090
KLRU 250915Z AUTO 25007KT 10SM BKN120 23/09 A3003 RMK AO2 T02310086
KLRU 250855Z AUTO 29009G15KT 270V330 10SM OVC120 24/09 A3002 RMK AO2 T02390085
KLRU 250835Z AUTO 28009G15KT 10SM OVC120 25/08 A3002 RMK AO2 T02450080
KLRU 250815Z AUTO 30008KT 10SM BKN120 24/08 A3002 RMK AO2 T02410077
KLRU 250755Z AUTO 24006KT 10SM CLR 23/07 A3001 RMK AO2 T02340072
KLRU 250735Z AUTO 13004KT 10SM CLR 21/08 A3001 RMK AO2 T02060083
KLRU 250715Z AUTO 29006KT 10SM CLR 22/08 A3000 RMK AO2 T02180076
KLRU 250655Z AUTO 27009KT 10SM SCT120 22/08 A3000 RMK AO2 T02160079
KLRU 250635Z AUTO 27009KT 10SM SCT120 21/08 A3000 RMK AO2 T02130083
KLRU 250615Z AUTO 25009KT 10SM BKN120 22/08 A3001 RMK AO2 T02170081
KLRU 250555Z AUTO 26009KT 10SM SCT120 22/08 A3001 RMK AO2 T02180080 10305 20217
KLRU 250535Z AUTO 26009KT 10SM CLR 22/08 A3001 RMK AO2 T02170079
KLRU 250515Z AUTO 26008KT 10SM CLR 22/07 A3001 RMK AO2 T02230073
KLRU 250455Z AUTO 27008KT 10SM CLR 22/07 A3001 RMK AO2 T02210074
KLRU 250435Z AUTO 29006KT 10SM CLR 23/07 A3001 RMK AO2 T02260066
KLRU 250415Z AUTO 29005KT 10SM CLR 22/08 A3001 RMK AO2 T02200075
KLRU 250355Z AUTO 25006KT 10SM CLR 23/07 A3000 RMK AO2 T02310067
KLRU 250335Z AUTO 26006KT 10SM CLR 23/07 A3000 RMK AO2 T02250074
KLRU 250315Z AUTO 26006KT 10SM SCT120 23/07 A3000 RMK AO2 T02310066
KLRU 250255Z AUTO 25006KT 10SM CLR 23/06 A3000 RMK AO2 T02330062
KLRU 250235Z AUTO 25005KT 10SM CLR 25/05 A2999 RMK AO2 T02520049
KLRU 250215Z AUTO 24006KT 10SM SCT120 26/03 A2999 RMK AO2 T02610031
KLRU 250155Z AUTO 23005KT 10SM BKN120 26/05 A2998 RMK AO2 T02550050
KLRU 250135Z AUTO 25006KT 10SM BKN120 26/04 A2998 RMK AO2 T02580044
KLRU 250115Z AUTO 24006KT 10SM CLR 27/04 A2997 RMK AO2 T02650043
KLRU 250055Z AUTO 25006KT 10SM CLR 28/03 A2997 RMK AO2 T02820033
KLRU 250035Z AUTO 28005KT 10SM CLR 30/03 A2996 RMK AO2 T02950027
KLRU 250015Z AUTO 30006KT 10SM CLR 30/03 A2996 RMK AO2 T03020026
KLRU 242355Z AUTO 23005KT 10SM CLR 30/02 A2996 RMK AO2 T03040021 10318 20276
KLRU 242335Z AUTO 25004KT 10SM CLR 31/02 A2996 RMK AO2 T03100022
KLRU 242315Z AUTO 22004KT 10SM CLR 31/02 A2996 RMK AO2 T03110023
KLRU 242255Z AUTO 26009KT 10SM CLR 31/03 A2997 RMK AO2 T03130026
KLRU 242235Z AUTO 22006KT 10SM CLR 32/03 A2997 RMK AO2 T03150027
KLRU 242215Z AUTO 00000KT 10SM BKN100 31/04 A2998 RMK AO2 T03120039
KLRU 242155Z AUTO 00000KT 10SM SCT110 31/02 A2998 RMK AO2 T03070019
KLRU 242135Z AUTO 14003KT 10SM CLR 32/03 A2999 RMK AO2 T03170034
KLRU 242115Z AUTO 15004KT 10SM CLR 31/04 A2999 RMK AO2 T03110043
KLRU 242055Z AUTO 33005KT 10SM CLR 31/04 A2999 RMK AO2 T03120040
KLRU 242035Z AUTO 19004KT 10SM CLR 31/04 A3000 RMK AO2 T03070040
KLRU 242015Z AUTO 13005KT 10SM CLR 31/05 A3001 RMK AO2 T03060054
KLRU 241955Z AUTO 10006KT 10SM CLR 30/06 A3002 RMK AO2 T02980055
KLRU 241935Z AUTO 09004KT 10SM CLR 30/06 A3003 RMK AO2 T03000064
KLRU 241915Z AUTO 07006KT 10SM CLR 29/07 A3003 RMK AO2 T02940066
KLRU 241855Z AUTO 09005KT 10SM CLR 29/07 A3004 RMK AO2 T02910072
KLRU 241835Z AUTO 27005KT 10SM CLR 29/05 A3005 RMK AO2 T02910050
KLRU 241815Z AUTO 29005KT 10SM CLR 29/06 A3006 RMK AO2 T02880055
KLRU 241755Z AUTO 28005KT 10SM CLR 28/07 A3007 RMK AO2 T02780066 10278 20131
KLRU 241735Z AUTO 00000KT 10SM CLR 27/07 A3008 RMK AO2 T02690068
KLRU 241715Z AUTO 00000KT 10SM CLR 26/07 A3008 RMK AO2 T02640073